Campiña-No se requiere un especial cuidado respecto a la situación meteorológica.   -   No hay avisos

Informes METAR

 

LEZL - Sevilla, Spain
Distancia de la estación: ENE 8km
Actualización: 10/08/2020 21:00
Despejado
Despejado
 Viento de SSO
Viento: SSO 17 km/h
Temperatura: 32°C
índice de calor: 34°C
Rocío: 19°C
Humedad: 46%
Barómetro: 1008 hPa
Resumen: Despejado
Visibilidad: mayor de 10 km
2020/08/10 19:00 LEZL 101900Z 21009KT 170V240 CAVOK 32/19 Q1008 NOSIG
LEMO - Morón, Spain
Distancia de la estación: SE 43km
Actualización: 10/08/2020 21:30
Despejado
Despejado
 Viento de OSO
Viento: OSO 20 km/h
Temperatura: 29°C
índice de calor: 30°C
Rocío: 19°C
Humedad: 55%
Barómetro: 1010 hPa
Resumen: Despejado
Visibilidad: mayor de 10 km
2020/08/10 19:30 LEMO 101930Z 25011KT 210V280 CAVOK 29/19 Q1010 NOSIG
LEJR - Jeréz, Spain
Distancia de la estación: S 71km
Actualización: 10/08/2020 21:30
Despejado
Despejado
 Viento de S
Viento: S 11 km/h
Temperatura: 26°C
Rocío: 21°C
Humedad: 74%
Barómetro: 1010 hPa
Resumen: Despejado
Visibilidad: mayor de 10 km
2020/08/10 19:30 LEJR 101930Z 19006KT CAVOK 26/21 Q1010
 
LERT - Rota, Spain
Distancia de la estación: SSO 89km
Actualización: 10/08/2020 21:30
Despejado
Despejado
 Viento de SO
Viento: SO 13 km/h
Temperatura: 24°C
Rocío: 21°C
Humedad: 83%
Barómetro: 1010 hPa
Resumen: Despejado
Visibilidad: mayor de 10 km
2020/08/10 19:30 LERT 101930Z 23007KT CAVOK 24/21 Q1010 NOSIG
LEMG - Málaga, Spain
Distancia de la estación: ESE 157km
Actualización: 10/08/2020 21:30
Despejado
Despejado
 Viento de SE
Viento: SE 19 km/h
Temperatura: 27°C
índice de calor: 30°C
Rocío: 23°C
Humedad: 79%
Barómetro: 1013 hPa
Resumen: Despejado
Visibilidad: mayor de 10 km
2020/08/10 19:30 LEMG 101930Z 13010KT CAVOK 27/23 Q1013 NOSIG
LEBA - Córdoba, Spain
Distancia de la estación: ENE 115km
Actualización: 10/08/2020 21:30
Despejado
Despejado
 Viento de OSO
Viento: OSO 6 km/h
Temperatura: 32°C
índice de calor: 33°C
Rocío: 17°C
Humedad: 41%
Barómetro: 1008 hPa
Resumen: Despejado
Visibilidad: mayor de 10 km
2020/08/10 19:30 LEBA 101930Z AUTO 25003KT 210V280 CAVOK 32/17 Q1008
 
LEGR - Granada, Spain
Distancia de la estación: E 198km
Actualización: 10/08/2020 21:30
Muy nuboso
Muy nuboso
 Viento de ONO
Viento: ONO 7 km/h
Temperatura: 30°C
Rocío: 10°C
Humedad: 29%
Barómetro: 1012 hPa
Nubes: Muy nuboso
Visibilidad: 10 km
Detalles de las nubes: Muy nuboso 1524 m
2020/08/10 19:30 LEGR 101930Z 29004KT 250V330 9999 BKN050TCU 30/10 Q1012
LEAM - Almería, Spain
Distancia de la estación: E 326km
Actualización: 10/08/2020 21:30
Poco nuboso
Poco nuboso
 Viento de ENE
Viento: ENE 26 km/h
Temperatura: 30°C
índice de calor: 32°C
Rocío: 20°C
Humedad: 55%
Barómetro: 1010 hPa
Nubes: Poco nuboso
Visibilidad: 10 km
Detalles de las nubes: Poco nuboso 457 m
2020/08/10 19:30 LEAM 101930Z 06014KT 030V090 9999 FEW015 30/20 Q1010
LEMD - Madrid/Barajas, Spain
Distancia de la estación: NNE 402km
Actualización: 10/08/2020 21:30
Parcialmente nuboso
Parcialmente nuboso
 Viento de SE
Viento: SE 13 km/h
Temperatura: 30°C
Rocío: 10°C
Humedad: 29%
Barómetro: 1013 hPa
Nubes: Parcialmente nuboso
Visibilidad: 10 km
Detalles de las nubes: Poco nuboso 1981 m
Parcialmente nuboso 2438 m
2020/08/10 19:30 LEMD 101930Z 14007KT 100V170 9999 FEW065TCU SCT080 30/10 Q1013 NOSIG
 
LEVD - Valladolid, Spain
Distancia de la estación: N 492km
Actualización: 10/08/2020 21:30
Parcialmente nuboso
Parcialmente nuboso
 Viento de S
Viento: S 13 km/h
Temperatura: 24°C
Rocío: 13°C
Humedad: 50%
Barómetro: 1013 hPa
Nubes: Parcialmente nuboso
Visibilidad: 10 km
Detalles de las nubes: Poco nuboso 549 m
Parcialmente nuboso 732 m
2020/08/10 19:30 LEVD 101930Z 17007KT 9999 FEW018 SCT024 24/13 Q1013
LEBL - Barcelona, Spain
Distancia de la estación: NE 816km
Actualización: 10/08/2020 21:30
Poco nuboso
Poco nuboso
 Viento de SO
Viento: SO 15 km/h
Temperatura: 27°C
índice de calor: 30°C
Rocío: 23°C
Humedad: 79%
Barómetro: 1013 hPa
Nubes: Poco nuboso
Visibilidad: 10 km
Detalles de las nubes: Poco nuboso 914 m
2020/08/10 19:30 LEBL 101930Z 23008KT 9999 FEW030 27/23 Q1013 NOSIG
LEVC - Valencia, Spain
Distancia de la estación: ENE 535km
Actualización: 10/08/2020 21:30
Poco nuboso
Poco nuboso
 Viento de E
Viento: E 7 km/h
Temperatura: 28°C
índice de calor: 30°C
Rocío: 22°C
Humedad: 70%
Barómetro: 1014 hPa
Nubes: Poco nuboso
Visibilidad: 10 km
Detalles de las nubes: Poco nuboso 610 m
2020/08/10 19:30 LEVC 101930Z 09004KT 9999 FEW020 28/22 Q1014 NOSIG